sensor_id;sensor_type;location;lat;lon;timestamp;P1;durP1;ratioP1;P2;durP2;ratioP2
47603;SDS011;33326;51.116;6.900;2022-07-22T00:04:12;11.85;;;6.10;;
47603;SDS011;33326;51.116;6.900;2022-07-22T00:09:16;12.98;;;6.32;;
47603;SDS011;33326;51.116;6.900;2022-07-22T00:14:18;12.52;;;5.82;;
47603;SDS011;33326;51.116;6.900;2022-07-22T00:19:20;12.48;;;6.00;;
47603;SDS011;33326;51.116;6.900;2022-07-22T00:24:23;10.18;;;5.63;;
47603;SDS011;33326;51.116;6.900;2022-07-22T00:29:25;12.60;;;5.82;;
47603;SDS011;33326;51.116;6.900;2022-07-22T00:34:27;11.68;;;6.25;;
47603;SDS011;33326;51.116;6.900;2022-07-22T00:39:30;11.43;;;5.88;;
47603;SDS011;33326;51.116;6.900;2022-07-22T00:44:32;14.57;;;6.05;;
47603;SDS011;33326;51.116;6.900;2022-07-22T00:49:34;14.32;;;5.88;;
47603;SDS011;33326;51.116;6.900;2022-07-22T00:54:37;16.85;;;6.78;;
47603;SDS011;33326;51.116;6.900;2022-07-22T00:59:39;13.35;;;6.00;;
47603;SDS011;33326;51.116;6.900;2022-07-22T01:04:42;12.27;;;5.90;;
47603;SDS011;33326;51.116;6.900;2022-07-22T01:09:48;15.38;;;6.22;;
47603;SDS011;33326;51.116;6.900;2022-07-22T01:14:50;13.23;;;6.88;;
47603;SDS011;33326;51.116;6.900;2022-07-22T01:19:52;16.13;;;7.00;;
47603;SDS011;33326;51.116;6.900;2022-07-22T01:24:56;18.67;;;7.15;;
47603;SDS011;33326;51.116;6.900;2022-07-22T01:29:58;16.17;;;7.32;;
47603;SDS011;33326;51.116;6.900;2022-07-22T01:35:00;15.32;;;7.70;;
47603;SDS011;33326;51.116;6.900;2022-07-22T01:40:04;15.07;;;8.02;;
47603;SDS011;33326;51.116;6.900;2022-07-22T01:45:07;17.00;;;7.85;;
47603;SDS011;33326;51.116;6.900;2022-07-22T01:50:10;15.35;;;8.35;;
47603;SDS011;33326;51.116;6.900;2022-07-22T01:55:14;17.23;;;8.27;;
47603;SDS011;33326;51.116;6.900;2022-07-22T02:00:16;15.43;;;8.75;;
47603;SDS011;33326;51.116;6.900;2022-07-22T02:05:19;22.20;;;9.15;;
47603;SDS011;33326;51.116;6.900;2022-07-22T02:10:23;14.60;;;9.10;;
47603;SDS011;33326;51.116;6.900;2022-07-22T02:15:26;13.88;;;9.00;;
47603;SDS011;33326;51.116;6.900;2022-07-22T02:20:32;16.13;;;9.07;;
47603;SDS011;33326;51.116;6.900;2022-07-22T02:25:35;17.70;;;9.40;;
47603;SDS011;33326;51.116;6.900;2022-07-22T02:30:37;17.38;;;9.73;;
47603;SDS011;33326;51.116;6.900;2022-07-22T02:35:39;18.40;;;9.70;;
47603;SDS011;33326;51.116;6.900;2022-07-22T02:40:43;16.42;;;9.68;;
47603;SDS011;33326;51.116;6.900;2022-07-22T02:45:45;17.67;;;9.90;;
47603;SDS011;33326;51.116;6.900;2022-07-22T02:50:47;15.63;;;9.80;;
47603;SDS011;33326;51.116;6.900;2022-07-22T02:55:57;15.32;;;8.98;;
47603;SDS011;33326;51.116;6.900;2022-07-22T03:00:59;19.08;;;10.85;;
47603;SDS011;33326;51.116;6.900;2022-07-22T03:06:01;16.85;;;9.75;;
47603;SDS011;33326;51.116;6.900;2022-07-22T03:11:20;14.82;;;9.98;;
47603;SDS011;33326;51.116;6.900;2022-07-22T03:16:22;16.08;;;9.48;;
47603;SDS011;33326;51.116;6.900;2022-07-22T03:21:24;16.35;;;10.93;;
47603;SDS011;33326;51.116;6.900;2022-07-22T03:26:28;15.85;;;9.88;;
47603;SDS011;33326;51.116;6.900;2022-07-22T03:31:30;15.50;;;9.50;;
47603;SDS011;33326;51.116;6.900;2022-07-22T03:36:33;16.83;;;9.20;;
47603;SDS011;33326;51.116;6.900;2022-07-22T03:41:36;12.85;;;8.57;;
47603;SDS011;33326;51.116;6.900;2022-07-22T03:46:38;12.70;;;8.43;;
47603;SDS011;33326;51.116;6.900;2022-07-22T03:51:40;12.98;;;8.05;;
47603;SDS011;33326;51.116;6.900;2022-07-22T03:56:44;14.35;;;7.68;;
47603;SDS011;33326;51.116;6.900;2022-07-22T04:01:46;10.05;;;6.88;;
47603;SDS011;33326;51.116;6.900;2022-07-22T04:06:48;12.77;;;7.45;;
47603;SDS011;33326;51.116;6.900;2022-07-22T04:11:56;14.27;;;8.00;;
47603;SDS011;33326;51.116;6.900;2022-07-22T04:17:00;10.35;;;8.13;;
47603;SDS011;33326;51.116;6.900;2022-07-22T04:22:03;14.88;;;9.93;;
47603;SDS011;33326;51.116;6.900;2022-07-22T04:27:06;19.50;;;11.43;;
47603;SDS011;33326;51.116;6.900;2022-07-22T04:32:10;16.80;;;12.20;;
47603;SDS011;33326;51.116;6.900;2022-07-22T04:37:12;19.67;;;13.98;;
47603;SDS011;33326;51.116;6.900;2022-07-22T04:42:16;16.25;;;12.63;;
47603;SDS011;33326;51.116;6.900;2022-07-22T04:47:19;18.52;;;13.40;;
47603;SDS011;33326;51.116;6.900;2022-07-22T04:52:23;17.83;;;13.75;;
47603;SDS011;33326;51.116;6.900;2022-07-22T04:57:26;23.30;;;15.23;;
47603;SDS011;33326;51.116;6.900;2022-07-22T05:02:32;21.25;;;15.02;;
47603;SDS011;33326;51.116;6.900;2022-07-22T05:07:34;19.98;;;12.55;;
47603;SDS011;33326;51.116;6.900;2022-07-22T05:12:37;15.90;;;8.45;;
47603;SDS011;33326;51.116;6.900;2022-07-22T05:17:39;13.88;;;7.60;;
47603;SDS011;33326;51.116;6.900;2022-07-22T05:23:02;11.45;;;6.47;;
47603;SDS011;33326;51.116;6.900;2022-07-22T05:28:07;12.02;;;5.35;;
47603;SDS011;33326;51.116;6.900;2022-07-22T05:33:12;9.15;;;5.10;;
47603;SDS011;33326;51.116;6.900;2022-07-22T05:38:37;8.52;;;3.97;;
47603;SDS011;33326;51.116;6.900;2022-07-22T05:43:42;12.10;;;4.32;;
47603;SDS011;33326;51.116;6.900;2022-07-22T05:48:44;5.75;;;3.78;;
47603;SDS011;33326;51.116;6.900;2022-07-22T05:53:46;8.55;;;4.25;;
47603;SDS011;33326;51.116;6.900;2022-07-22T05:58:49;7.95;;;4.15;;
47603;SDS011;33326;51.116;6.900;2022-07-22T06:03:51;10.05;;;4.65;;
47603;SDS011;33326;51.116;6.900;2022-07-22T06:08:53;9.18;;;4.07;;
47603;SDS011;33326;51.116;6.900;2022-07-22T06:13:58;9.63;;;3.90;;
47603;SDS011;33326;51.116;6.900;2022-07-22T06:19:00;8.75;;;4.35;;
47603;SDS011;33326;51.116;6.900;2022-07-22T06:24:02;8.57;;;4.07;;
47603;SDS011;33326;51.116;6.900;2022-07-22T06:29:05;9.00;;;4.40;;
47603;SDS011;33326;51.116;6.900;2022-07-22T06:34:07;7.85;;;3.97;;
47603;SDS011;33326;51.116;6.900;2022-07-22T06:39:30;10.05;;;3.80;;
47603;SDS011;33326;51.116;6.900;2022-07-22T06:45:06;8.73;;;4.32;;
47603;SDS011;33326;51.116;6.900;2022-07-22T06:50:16;8.65;;;4.60;;
47603;SDS011;33326;51.116;6.900;2022-07-22T06:55:17;9.70;;;4.78;;
47603;SDS011;33326;51.116;6.900;2022-07-22T07:00:32;8.05;;;4.05;;
47603;SDS011;33326;51.116;6.900;2022-07-22T07:05:58;7.82;;;4.43;;
47603;SDS011;33326;51.116;6.900;2022-07-22T07:11:07;11.57;;;4.55;;
47603;SDS011;33326;51.116;6.900;2022-07-22T07:16:10;12.32;;;4.85;;
47603;SDS011;33326;51.116;6.900;2022-07-22T07:21:12;12.93;;;5.28;;
47603;SDS011;33326;51.116;6.900;2022-07-22T07:26:17;8.20;;;4.55;;
47603;SDS011;33326;51.116;6.900;2022-07-22T07:31:21;9.98;;;4.55;;
47603;SDS011;33326;51.116;6.900;2022-07-22T07:36:26;11.50;;;6.22;;
47603;SDS011;33326;51.116;6.900;2022-07-22T07:41:28;12.68;;;6.00;;
47603;SDS011;33326;51.116;6.900;2022-07-22T07:46:32;10.77;;;6.80;;
47603;SDS011;33326;51.116;6.900;2022-07-22T07:51:34;11.27;;;8.30;;
47603;SDS011;33326;51.116;6.900;2022-07-22T07:56:36;16.60;;;8.20;;
47603;SDS011;33326;51.116;6.900;2022-07-22T08:01:40;16.45;;;8.25;;
47603;SDS011;33326;51.116;6.900;2022-07-22T08:06:42;14.20;;;8.07;;
47603;SDS011;33326;51.116;6.900;2022-07-22T08:11:44;13.55;;;8.15;;
47603;SDS011;33326;51.116;6.900;2022-07-22T08:17:14;14.38;;;8.38;;
47603;SDS011;33326;51.116;6.900;2022-07-22T08:22:16;14.60;;;7.82;;
47603;SDS011;33326;51.116;6.900;2022-07-22T08:27:20;12.70;;;7.00;;
47603;SDS011;33326;51.116;6.900;2022-07-22T08:32:24;11.32;;;5.72;;
47603;SDS011;33326;51.116;6.900;2022-07-22T08:37:26;10.30;;;5.97;;
47603;SDS011;33326;51.116;6.900;2022-07-22T08:42:28;11.85;;;5.50;;
47603;SDS011;33326;51.116;6.900;2022-07-22T08:47:33;9.55;;;5.07;;
47603;SDS011;33326;51.116;6.900;2022-07-22T08:52:49;10.10;;;4.82;;
47603;SDS011;33326;51.116;6.900;2022-07-22T08:57:51;7.55;;;4.60;;
47603;SDS011;33326;51.116;6.900;2022-07-22T09:02:55;9.32;;;5.35;;
47603;SDS011;33326;51.116;6.900;2022-07-22T09:08:00;9.60;;;5.22;;
47603;SDS011;33326;51.116;6.900;2022-07-22T09:13:22;9.32;;;5.22;;
47603;SDS011;33326;51.116;6.900;2022-07-22T09:18:48;10.38;;;5.13;;
47603;SDS011;33326;51.116;6.900;2022-07-22T09:24:06;12.13;;;5.25;;
47603;SDS011;33326;51.116;6.900;2022-07-22T09:29:09;9.43;;;5.15;;
47603;SDS011;33326;51.116;6.900;2022-07-22T09:34:31;10.60;;;5.40;;
47603;SDS011;33326;51.116;6.900;2022-07-22T09:39:50;8.77;;;5.35;;
47603;SDS011;33326;51.116;6.900;2022-07-22T09:44:53;13.23;;;5.43;;
47603;SDS011;33326;51.116;6.900;2022-07-22T09:50:03;10.23;;;5.95;;
47603;SDS011;33326;51.116;6.900;2022-07-22T09:55:33;13.90;;;6.30;;
47603;SDS011;33326;51.116;6.900;2022-07-22T10:00:39;10.82;;;5.95;;
47603;SDS011;33326;51.116;6.900;2022-07-22T10:05:44;8.85;;;6.80;;
47603;SDS011;33326;51.116;6.900;2022-07-22T10:10:47;12.73;;;7.13;;
47603;SDS011;33326;51.116;6.900;2022-07-22T10:15:50;10.18;;;6.32;;
47603;SDS011;33326;51.116;6.900;2022-07-22T10:21:01;10.77;;;6.80;;
47603;SDS011;33326;51.116;6.900;2022-07-22T10:26:05;13.82;;;6.70;;
47603;SDS011;33326;51.116;6.900;2022-07-22T10:31:16;11.88;;;7.13;;
47603;SDS011;33326;51.116;6.900;2022-07-22T10:36:31;11.82;;;6.68;;
47603;SDS011;33326;51.116;6.900;2022-07-22T10:41:35;12.55;;;7.00;;
47603;SDS011;33326;51.116;6.900;2022-07-22T10:46:48;13.82;;;7.72;;
47603;SDS011;33326;51.116;6.900;2022-07-22T10:52:09;13.00;;;7.47;;
47603;SDS011;33326;51.116;6.900;2022-07-22T10:57:28;13.82;;;7.45;;
47603;SDS011;33326;51.116;6.900;2022-07-22T11:02:31;11.35;;;8.35;;
47603;SDS011;33326;51.116;6.900;2022-07-22T11:07:35;13.23;;;9.48;;
47603;SDS011;33326;51.116;6.900;2022-07-22T11:12:42;14.57;;;10.00;;
47603;SDS011;33326;51.116;6.900;2022-07-22T11:17:44;16.35;;;10.80;;
47603;SDS011;33326;51.116;6.900;2022-07-22T11:22:47;16.85;;;10.88;;
47603;SDS011;33326;51.116;6.900;2022-07-22T11:27:50;16.30;;;11.00;;
47603;SDS011;33326;51.116;6.900;2022-07-22T11:32:54;16.40;;;10.75;;
47603;SDS011;33326;51.116;6.900;2022-07-22T11:37:57;19.45;;;10.38;;
47603;SDS011;33326;51.116;6.900;2022-07-22T11:43:02;14.82;;;10.18;;
47603;SDS011;33326;51.116;6.900;2022-07-22T11:48:08;16.92;;;11.15;;
47603;SDS011;33326;51.116;6.900;2022-07-22T11:53:11;15.23;;;11.98;;
47603;SDS011;33326;51.116;6.900;2022-07-22T11:58:13;15.93;;;11.93;;
47603;SDS011;33326;51.116;6.900;2022-07-22T12:03:15;19.65;;;14.50;;
47603;SDS011;33326;51.116;6.900;2022-07-22T12:08:19;15.32;;;10.70;;
47603;SDS011;33326;51.116;6.900;2022-07-22T12:13:21;15.20;;;10.73;;
47603;SDS011;33326;51.116;6.900;2022-07-22T12:18:23;15.75;;;11.35;;
47603;SDS011;33326;51.116;6.900;2022-07-22T12:23:28;15.85;;;10.52;;
47603;SDS011;33326;51.116;6.900;2022-07-22T12:28:30;18.98;;;13.60;;
47603;SDS011;33326;51.116;6.900;2022-07-22T12:33:32;23.08;;;12.93;;
47603;SDS011;33326;51.116;6.900;2022-07-22T12:38:35;16.83;;;12.73;;
47603;SDS011;33326;51.116;6.900;2022-07-22T12:43:37;15.52;;;11.90;;
47603;SDS011;33326;51.116;6.900;2022-07-22T12:48:48;14.30;;;11.18;;
47603;SDS011;33326;51.116;6.900;2022-07-22T12:53:52;16.88;;;13.05;;
47603;SDS011;33326;51.116;6.900;2022-07-22T12:58:54;17.63;;;13.02;;
47603;SDS011;33326;51.116;6.900;2022-07-22T13:03:56;17.42;;;12.70;;
47603;SDS011;33326;51.116;6.900;2022-07-22T13:08:59;19.38;;;13.25;;
47603;SDS011;33326;51.116;6.900;2022-07-22T13:14:01;20.23;;;13.38;;
47603;SDS011;33326;51.116;6.900;2022-07-22T13:19:03;21.58;;;14.57;;
47603;SDS011;33326;51.116;6.900;2022-07-22T13:24:07;17.15;;;13.02;;
47603;SDS011;33326;51.116;6.900;2022-07-22T13:29:09;19.50;;;13.68;;
47603;SDS011;33326;51.116;6.900;2022-07-22T13:34:12;19.80;;;13.50;;
47603;SDS011;33326;51.116;6.900;2022-07-22T13:39:15;18.73;;;13.38;;
47603;SDS011;33326;51.116;6.900;2022-07-22T13:44:17;20.73;;;14.85;;
47603;SDS011;33326;51.116;6.900;2022-07-22T13:49:19;21.25;;;14.75;;
47603;SDS011;33326;51.116;6.900;2022-07-22T13:54:23;21.05;;;14.98;;
47603;SDS011;33326;51.116;6.900;2022-07-22T13:59:25;19.58;;;13.57;;
47603;SDS011;33326;51.116;6.900;2022-07-22T14:04:29;16.92;;;12.80;;
47603;SDS011;33326;51.116;6.900;2022-07-22T14:09:32;19.58;;;12.90;;
47603;SDS011;33326;51.116;6.900;2022-07-22T14:14:34;17.65;;;13.27;;
47603;SDS011;33326;51.116;6.900;2022-07-22T14:19:36;18.10;;;12.93;;
47603;SDS011;33326;51.116;6.900;2022-07-22T14:24:39;18.42;;;12.52;;
47603;SDS011;33326;51.116;6.900;2022-07-22T14:29:41;17.92;;;12.85;;
47603;SDS011;33326;51.116;6.900;2022-07-22T14:34:43;18.98;;;13.45;;
47603;SDS011;33326;51.116;6.900;2022-07-22T14:39:46;21.20;;;14.20;;
47603;SDS011;33326;51.116;6.900;2022-07-22T14:44:48;18.85;;;12.65;;
47603;SDS011;33326;51.116;6.900;2022-07-22T14:49:50;20.02;;;14.23;;
47603;SDS011;33326;51.116;6.900;2022-07-22T14:54:53;23.83;;;13.95;;
47603;SDS011;33326;51.116;6.900;2022-07-22T14:59:55;20.02;;;14.80;;
47603;SDS011;33326;51.116;6.900;2022-07-22T15:04:56;19.17;;;13.75;;
47603;SDS011;33326;51.116;6.900;2022-07-22T15:10:00;22.08;;;14.52;;
47603;SDS011;33326;51.116;6.900;2022-07-22T15:15:02;20.75;;;15.02;;
47603;SDS011;33326;51.116;6.900;2022-07-22T15:20:05;19.75;;;14.88;;
47603;SDS011;33326;51.116;6.900;2022-07-22T15:25:09;22.25;;;16.08;;
47603;SDS011;33326;51.116;6.900;2022-07-22T15:30:11;22.95;;;16.70;;
47603;SDS011;33326;51.116;6.900;2022-07-22T15:35:14;22.27;;;16.73;;
47603;SDS011;33326;51.116;6.900;2022-07-22T15:40:17;22.55;;;16.85;;
47603;SDS011;33326;51.116;6.900;2022-07-22T15:45:21;25.48;;;17.52;;
47603;SDS011;33326;51.116;6.900;2022-07-22T15:50:23;24.55;;;16.48;;
47603;SDS011;33326;51.116;6.900;2022-07-22T15:55:26;24.45;;;16.65;;
47603;SDS011;33326;51.116;6.900;2022-07-22T16:00:30;24.23;;;17.25;;
47603;SDS011;33326;51.116;6.900;2022-07-22T16:05:32;25.15;;;17.85;;
47603;SDS011;33326;51.116;6.900;2022-07-22T16:10:35;25.83;;;17.02;;
47603;SDS011;33326;51.116;6.900;2022-07-22T16:15:37;24.50;;;16.67;;
47603;SDS011;33326;51.116;6.900;2022-07-22T16:20:39;24.23;;;16.30;;
47603;SDS011;33326;51.116;6.900;2022-07-22T16:25:43;22.35;;;15.38;;
47603;SDS011;33326;51.116;6.900;2022-07-22T16:30:45;19.73;;;13.88;;
47603;SDS011;33326;51.116;6.900;2022-07-22T16:35:47;22.25;;;13.00;;
47603;SDS011;33326;51.116;6.900;2022-07-22T16:40:50;21.25;;;13.20;;
47603;SDS011;33326;51.116;6.900;2022-07-22T16:45:53;20.73;;;12.32;;
47603;SDS011;33326;51.116;6.900;2022-07-22T16:50:54;16.50;;;11.57;;
47603;SDS011;33326;51.116;6.900;2022-07-22T16:55:58;21.33;;;13.50;;
47603;SDS011;33326;51.116;6.900;2022-07-22T17:00:59;19.17;;;14.20;;
47603;SDS011;33326;51.116;6.900;2022-07-22T17:06:01;23.48;;;14.68;;
47603;SDS011;33326;51.116;6.900;2022-07-22T17:11:05;20.55;;;13.48;;
47603;SDS011;33326;51.116;6.900;2022-07-22T17:16:07;19.15;;;12.93;;
47603;SDS011;33326;51.116;6.900;2022-07-22T17:21:09;18.23;;;13.07;;
47603;SDS011;33326;51.116;6.900;2022-07-22T17:26:15;18.00;;;12.80;;
47603;SDS011;33326;51.116;6.900;2022-07-22T17:31:17;22.60;;;14.35;;
47603;SDS011;33326;51.116;6.900;2022-07-22T17:36:19;20.00;;;13.80;;
47603;SDS011;33326;51.116;6.900;2022-07-22T17:41:22;23.48;;;15.20;;
47603;SDS011;33326;51.116;6.900;2022-07-22T17:46:24;22.88;;;16.02;;
47603;SDS011;33326;51.116;6.900;2022-07-22T17:51:26;20.98;;;15.13;;
47603;SDS011;33326;51.116;6.900;2022-07-22T17:56:30;23.85;;;16.05;;
47603;SDS011;33326;51.116;6.900;2022-07-22T18:01:31;20.23;;;15.63;;
47603;SDS011;33326;51.116;6.900;2022-07-22T18:06:33;24.48;;;15.85;;
47603;SDS011;33326;51.116;6.900;2022-07-22T18:11:37;21.42;;;15.35;;
47603;SDS011;33326;51.116;6.900;2022-07-22T18:16:40;22.58;;;16.35;;
47603;SDS011;33326;51.116;6.900;2022-07-22T18:21:42;24.70;;;15.90;;
47603;SDS011;33326;51.116;6.900;2022-07-22T18:26:45;22.35;;;15.43;;
47603;SDS011;33326;51.116;6.900;2022-07-22T18:31:47;23.60;;;15.60;;
47603;SDS011;33326;51.116;6.900;2022-07-22T18:36:49;22.13;;;16.25;;
47603;SDS011;33326;51.116;6.900;2022-07-22T18:41:53;23.23;;;15.40;;
47603;SDS011;33326;51.116;6.900;2022-07-22T18:46:55;21.90;;;15.40;;
47603;SDS011;33326;51.116;6.900;2022-07-22T18:51:56;21.73;;;15.32;;
47603;SDS011;33326;51.116;6.900;2022-07-22T18:57:00;22.65;;;15.63;;
47603;SDS011;33326;51.116;6.900;2022-07-22T19:02:02;21.20;;;15.25;;
47603;SDS011;33326;51.116;6.900;2022-07-22T19:07:04;26.13;;;14.82;;
47603;SDS011;33326;51.116;6.900;2022-07-22T19:12:07;21.08;;;14.50;;
47603;SDS011;33326;51.116;6.900;2022-07-22T19:17:10;21.67;;;15.07;;
47603;SDS011;33326;51.116;6.900;2022-07-22T19:22:11;19.90;;;14.25;;
47603;SDS011;33326;51.116;6.900;2022-07-22T19:27:15;20.40;;;14.95;;
47603;SDS011;33326;51.116;6.900;2022-07-22T19:32:17;21.75;;;14.60;;
47603;SDS011;33326;51.116;6.900;2022-07-22T19:37:19;22.35;;;14.73;;
47603;SDS011;33326;51.116;6.900;2022-07-22T19:42:22;19.40;;;14.00;;
47603;SDS011;33326;51.116;6.900;2022-07-22T19:47:24;22.48;;;14.43;;
47603;SDS011;33326;51.116;6.900;2022-07-22T19:52:26;19.58;;;14.25;;
47603;SDS011;33326;51.116;6.900;2022-07-22T19:57:29;23.50;;;14.60;;
47603;SDS011;33326;51.116;6.900;2022-07-22T20:02:31;17.75;;;13.32;;
47603;SDS011;33326;51.116;6.900;2022-07-22T20:07:33;19.63;;;14.13;;
47603;SDS011;33326;51.116;6.900;2022-07-22T20:12:36;20.17;;;14.45;;
47603;SDS011;33326;51.116;6.900;2022-07-22T20:17:38;21.80;;;14.38;;
47603;SDS011;33326;51.116;6.900;2022-07-22T20:22:40;18.10;;;14.07;;
47603;SDS011;33326;51.116;6.900;2022-07-22T20:27:43;21.00;;;14.43;;
47603;SDS011;33326;51.116;6.900;2022-07-22T20:32:45;18.00;;;14.32;;
47603;SDS011;33326;51.116;6.900;2022-07-22T20:37:47;21.02;;;13.68;;
47603;SDS011;33326;51.116;6.900;2022-07-22T20:42:50;18.63;;;14.00;;
47603;SDS011;33326;51.116;6.900;2022-07-22T20:47:52;19.85;;;14.52;;
47603;SDS011;33326;51.116;6.900;2022-07-22T20:52:54;20.40;;;15.68;;
47603;SDS011;33326;51.116;6.900;2022-07-22T20:57:57;21.15;;;15.00;;
47603;SDS011;33326;51.116;6.900;2022-07-22T21:02:59;20.83;;;14.90;;
47603;SDS011;33326;51.116;6.900;2022-07-22T21:08:00;19.75;;;14.70;;
47603;SDS011;33326;51.116;6.900;2022-07-22T21:13:03;19.10;;;13.77;;
47603;SDS011;33326;51.116;6.900;2022-07-22T21:18:05;18.98;;;14.50;;
47603;SDS011;33326;51.116;6.900;2022-07-22T21:23:07;17.40;;;13.93;;
47603;SDS011;33326;51.116;6.900;2022-07-22T21:28:10;17.35;;;13.63;;
47603;SDS011;33326;51.116;6.900;2022-07-22T21:33:13;19.95;;;14.88;;
47603;SDS011;33326;51.116;6.900;2022-07-22T21:38:15;19.90;;;14.85;;
47603;SDS011;33326;51.116;6.900;2022-07-22T21:43:18;21.05;;;14.50;;
47603;SDS011;33326;51.116;6.900;2022-07-22T21:48:21;19.83;;;14.35;;
47603;SDS011;33326;51.116;6.900;2022-07-22T21:53:23;21.75;;;14.68;;
47603;SDS011;33326;51.116;6.900;2022-07-22T21:58:26;18.20;;;14.38;;
47603;SDS011;33326;51.116;6.900;2022-07-22T22:03:28;17.63;;;13.95;;
47603;SDS011;33326;51.116;6.900;2022-07-22T22:08:30;21.05;;;14.63;;
47603;SDS011;33326;51.116;6.900;2022-07-22T22:13:33;19.10;;;13.75;;
47603;SDS011;33326;51.116;6.900;2022-07-22T22:18:34;21.02;;;15.52;;
47603;SDS011;33326;51.116;6.900;2022-07-22T22:23:36;21.75;;;14.38;;
47603;SDS011;33326;51.116;6.900;2022-07-22T22:28:40;20.33;;;14.70;;
47603;SDS011;33326;51.116;6.900;2022-07-22T22:33:42;17.83;;;14.38;;
47603;SDS011;33326;51.116;6.900;2022-07-22T22:38:44;28.92;;;15.27;;
47603;SDS011;33326;51.116;6.900;2022-07-22T22:43:48;24.55;;;17.60;;
47603;SDS011;33326;51.116;6.900;2022-07-22T22:48:49;22.33;;;16.50;;
47603;SDS011;33326;51.116;6.900;2022-07-22T22:53:51;27.02;;;18.92;;
47603;SDS011;33326;51.116;6.900;2022-07-22T22:58:54;27.35;;;17.02;;
47603;SDS011;33326;51.116;6.900;2022-07-22T23:03:56;24.40;;;16.98;;
47603;SDS011;33326;51.116;6.900;2022-07-22T23:08:58;22.42;;;15.50;;
47603;SDS011;33326;51.116;6.900;2022-07-22T23:14:01;22.05;;;14.35;;
47603;SDS011;33326;51.116;6.900;2022-07-22T23:19:03;21.25;;;15.32;;
47603;SDS011;33326;51.116;6.900;2022-07-22T23:24:05;21.58;;;14.05;;
47603;SDS011;33326;51.116;6.900;2022-07-22T23:29:09;19.33;;;13.85;;
47603;SDS011;33326;51.116;6.900;2022-07-22T23:34:11;20.08;;;14.48;;
47603;SDS011;33326;51.116;6.900;2022-07-22T23:39:13;20.08;;;14.27;;
47603;SDS011;33326;51.116;6.900;2022-07-22T23:44:16;17.40;;;13.77;;
47603;SDS011;33326;51.116;6.900;2022-07-22T23:49:18;22.10;;;15.27;;
47603;SDS011;33326;51.116;6.900;2022-07-22T23:54:20;19.17;;;15.18;;
47603;SDS011;33326;51.116;6.900;2022-07-22T23:59:24;22.77;;;16.10;;
